sensor_id;sensor_type;location;lat;lon;timestamp;P1;durP1;ratioP1;P2;durP2;ratioP2
72785;SDS011;60902;53.876;10.674;2023-04-25T00:00:09;5.15;;;2.30;;
72785;SDS011;60902;53.876;10.674;2023-04-25T00:00:21;5.15;;;2.40;;
72785;SDS011;60902;53.876;10.674;2023-04-25T00:00:32;5.03;;;2.20;;
72785;SDS011;60902;53.876;10.674;2023-04-25T00:00:44;5.13;;;2.17;;
72785;SDS011;60902;53.876;10.674;2023-04-25T00:00:55;5.18;;;2.00;;
72785;SDS011;60902;53.876;10.674;2023-04-25T00:01:06;5.30;;;2.08;;
72785;SDS011;60902;53.876;10.674;2023-04-25T00:01:19;5.13;;;2.13;;
72785;SDS011;60902;53.876;10.674;2023-04-25T00:01:31;4.97;;;2.17;;
72785;SDS011;60902;53.876;10.674;2023-04-25T00:01:46;5.40;;;2.15;;
72785;SDS011;60902;53.876;10.674;2023-04-25T00:02:01;5.65;;;2.35;;
72785;SDS011;60902;53.876;10.674;2023-04-25T00:02:13;5.57;;;2.50;;
72785;SDS011;60902;53.876;10.674;2023-04-25T00:02:24;5.97;;;2.65;;
72785;SDS011;60902;53.876;10.674;2023-04-25T00:02:36;5.70;;;2.70;;
72785;SDS011;60902;53.876;10.674;2023-04-25T00:02:47;5.00;;;2.40;;
72785;SDS011;60902;53.876;10.674;2023-04-25T00:02:58;5.38;;;2.22;;
72785;SDS011;60902;53.876;10.674;2023-04-25T00:03:09;6.10;;;2.20;;
72785;SDS011;60902;53.876;10.674;2023-04-25T00:03:20;6.03;;;2.10;;
72785;SDS011;60902;53.876;10.674;2023-04-25T00:03:32;5.75;;;1.95;;
72785;SDS011;60902;53.876;10.674;2023-04-25T00:03:45;6.07;;;2.17;;
72785;SDS011;60902;53.876;10.674;2023-04-25T00:03:56;6.10;;;2.33;;
72785;SDS011;60902;53.876;10.674;2023-04-25T00:04:07;5.82;;;2.60;;
72785;SDS011;60902;53.876;10.674;2023-04-25T00:04:18;5.47;;;2.60;;
72785;SDS011;60902;53.876;10.674;2023-04-25T00:04:31;5.40;;;2.42;;
72785;SDS011;60902;53.876;10.674;2023-04-25T00:04:43;5.78;;;2.45;;
72785;SDS011;60902;53.876;10.674;2023-04-25T00:04:55;6.07;;;2.50;;
72785;SDS011;60902;53.876;10.674;2023-04-25T00:05:08;5.85;;;2.60;;
72785;SDS011;60902;53.876;10.674;2023-04-25T00:05:20;5.30;;;2.33;;
72785;SDS011;60902;53.876;10.674;2023-04-25T00:05:33;4.68;;;2.13;;
72785;SDS011;60902;53.876;10.674;2023-04-25T00:05:44;4.85;;;2.05;;
72785;SDS011;60902;53.876;10.674;2023-04-25T00:05:55;4.47;;;1.95;;
72785;SDS011;60902;53.876;10.674;2023-04-25T00:06:07;4.63;;;2.17;;
72785;SDS011;60902;53.876;10.674;2023-04-25T00:06:18;4.97;;;2.22;;
72785;SDS011;60902;53.876;10.674;2023-04-25T00:06:30;5.38;;;2.53;;
72785;SDS011;60902;53.876;10.674;2023-04-25T00:06:42;4.73;;;2.30;;
72785;SDS011;60902;53.876;10.674;2023-04-25T00:06:53;4.65;;;2.20;;
72785;SDS011;60902;53.876;10.674;2023-04-25T00:07:04;4.43;;;2.17;;
72785;SDS011;60902;53.876;10.674;2023-04-25T00:07:15;4.72;;;2.30;;
72785;SDS011;60902;53.876;10.674;2023-04-25T00:07:26;4.70;;;2.13;;
72785;SDS011;60902;53.876;10.674;2023-04-25T00:07:38;4.65;;;2.15;;
72785;SDS011;60902;53.876;10.674;2023-04-25T00:07:52;4.70;;;2.15;;
72785;SDS011;60902;53.876;10.674;2023-04-25T00:08:05;4.85;;;2.17;;
72785;SDS011;60902;53.876;10.674;2023-04-25T00:08:15;4.85;;;2.10;;
72785;SDS011;60902;53.876;10.674;2023-04-25T00:08:27;5.00;;;2.20;;
72785;SDS011;60902;53.876;10.674;2023-04-25T00:08:38;4.93;;;2.30;;
72785;SDS011;60902;53.876;10.674;2023-04-25T00:08:49;5.47;;;2.37;;
72785;SDS011;60902;53.876;10.674;2023-04-25T00:09:00;5.18;;;2.22;;
72785;SDS011;60902;53.876;10.674;2023-04-25T00:09:11;4.90;;;2.10;;
72785;SDS011;60902;53.876;10.674;2023-04-25T00:09:23;4.60;;;2.10;;
72785;SDS011;60902;53.876;10.674;2023-04-25T00:09:35;4.78;;;2.17;;
72785;SDS011;60902;53.876;10.674;2023-04-25T00:09:46;4.72;;;2.13;;
72785;SDS011;60902;53.876;10.674;2023-04-25T00:09:57;4.78;;;2.10;;
72785;SDS011;60902;53.876;10.674;2023-04-25T00:10:09;4.82;;;2.42;;
72785;SDS011;60902;53.876;10.674;2023-04-25T00:10:21;5.30;;;2.40;;
72785;SDS011;60902;53.876;10.674;2023-04-25T00:10:34;4.95;;;2.33;;
72785;SDS011;60902;53.876;10.674;2023-04-25T00:10:46;4.50;;;2.30;;
72785;SDS011;60902;53.876;10.674;2023-04-25T00:10:58;4.80;;;2.35;;
72785;SDS011;60902;53.876;10.674;2023-04-25T00:11:10;5.07;;;2.30;;
72785;SDS011;60902;53.876;10.674;2023-04-25T00:11:21;5.22;;;2.30;;
72785;SDS011;60902;53.876;10.674;2023-04-25T00:11:32;5.15;;;2.08;;
72785;SDS011;60902;53.876;10.674;2023-04-25T00:11:43;5.45;;;2.05;;
72785;SDS011;60902;53.876;10.674;2023-04-25T00:11:54;5.85;;;2.17;;
72785;SDS011;60902;53.876;10.674;2023-04-25T00:12:06;6.10;;;2.15;;
72785;SDS011;60902;53.876;10.674;2023-04-25T00:12:18;6.28;;;2.00;;
72785;SDS011;60902;53.876;10.674;2023-04-25T00:12:29;5.80;;;2.10;;
72785;SDS011;60902;53.876;10.674;2023-04-25T00:12:40;5.10;;;2.15;;
72785;SDS011;60902;53.876;10.674;2023-04-25T00:12:51;4.63;;;2.15;;
72785;SDS011;60902;53.876;10.674;2023-04-25T00:13:04;4.88;;;2.20;;
72785;SDS011;60902;53.876;10.674;2023-04-25T00:13:14;5.18;;;2.40;;
72785;SDS011;60902;53.876;10.674;2023-04-25T00:13:27;5.20;;;2.45;;
72785;SDS011;60902;53.876;10.674;2023-04-25T00:13:38;5.22;;;2.38;;
72785;SDS011;60902;53.876;10.674;2023-04-25T00:13:51;5.15;;;2.30;;
72785;SDS011;60902;53.876;10.674;2023-04-25T00:14:03;5.68;;;2.10;;
72785;SDS011;60902;53.876;10.674;2023-04-25T00:14:14;5.90;;;2.38;;
72785;SDS011;60902;53.876;10.674;2023-04-25T00:14:26;5.95;;;2.38;;
72785;SDS011;60902;53.876;10.674;2023-04-25T00:14:39;5.05;;;2.25;;
72785;SDS011;60902;53.876;10.674;2023-04-25T00:14:50;6.38;;;2.40;;
72785;SDS011;60902;53.876;10.674;2023-04-25T00:15:03;6.50;;;2.47;;
72785;SDS011;60902;53.876;10.674;2023-04-25T00:15:16;5.78;;;2.50;;
72785;SDS011;60902;53.876;10.674;2023-04-25T00:15:27;5.43;;;2.50;;
72785;SDS011;60902;53.876;10.674;2023-04-25T00:15:40;5.40;;;2.38;;
72785;SDS011;60902;53.876;10.674;2023-04-25T00:15:52;5.45;;;2.30;;
72785;SDS011;60902;53.876;10.674;2023-04-25T00:16:04;5.03;;;2.17;;
72785;SDS011;60902;53.876;10.674;2023-04-25T00:16:16;5.30;;;2.53;;
72785;SDS011;60902;53.876;10.674;2023-04-25T00:16:27;5.57;;;2.60;;
72785;SDS011;60902;53.876;10.674;2023-04-25T00:16:43;5.03;;;2.47;;
72785;SDS011;60902;53.876;10.674;2023-04-25T00:16:55;5.25;;;2.55;;
72785;SDS011;60902;53.876;10.674;2023-04-25T00:17:06;5.85;;;2.53;;
72785;SDS011;60902;53.876;10.674;2023-04-25T00:17:17;6.43;;;2.45;;
72785;SDS011;60902;53.876;10.674;2023-04-25T00:17:29;6.07;;;2.40;;
72785;SDS011;60902;53.876;10.674;2023-04-25T00:17:41;5.82;;;2.60;;
72785;SDS011;60902;53.876;10.674;2023-04-25T00:17:52;5.43;;;2.50;;
72785;SDS011;60902;53.876;10.674;2023-04-25T00:18:03;5.35;;;2.33;;
72785;SDS011;60902;53.876;10.674;2023-04-25T00:18:17;5.32;;;2.28;;
72785;SDS011;60902;53.876;10.674;2023-04-25T00:18:29;5.70;;;2.30;;
72785;SDS011;60902;53.876;10.674;2023-04-25T00:18:41;5.30;;;2.40;;
72785;SDS011;60902;53.876;10.674;2023-04-25T00:18:52;5.18;;;2.40;;
72785;SDS011;60902;53.876;10.674;2023-04-25T00:19:03;4.88;;;2.45;;
72785;SDS011;60902;53.876;10.674;2023-04-25T00:19:15;4.75;;;2.30;;
72785;SDS011;60902;53.876;10.674;2023-04-25T00:19:26;4.60;;;1.98;;
72785;SDS011;60902;53.876;10.674;2023-04-25T00:19:38;4.65;;;2.00;;
72785;SDS011;60902;53.876;10.674;2023-04-25T00:19:49;4.88;;;2.10;;
72785;SDS011;60902;53.876;10.674;2023-04-25T00:20:02;5.47;;;2.22;;
72785;SDS011;60902;53.876;10.674;2023-04-25T00:20:15;5.63;;;2.30;;
72785;SDS011;60902;53.876;10.674;2023-04-25T00:20:26;5.07;;;2.28;;
72785;SDS011;60902;53.876;10.674;2023-04-25T00:20:37;5.28;;;2.10;;
72785;SDS011;60902;53.876;10.674;2023-04-25T00:20:49;5.78;;;2.20;;
72785;SDS011;60902;53.876;10.674;2023-04-25T00:21:00;5.70;;;2.20;;
72785;SDS011;60902;53.876;10.674;2023-04-25T00:21:11;5.38;;;2.40;;
72785;SDS011;60902;53.876;10.674;2023-04-25T00:21:22;5.30;;;2.50;;
72785;SDS011;60902;53.876;10.674;2023-04-25T00:21:35;5.45;;;2.53;;
72785;SDS011;60902;53.876;10.674;2023-04-25T00:21:47;5.35;;;2.45;;
72785;SDS011;60902;53.876;10.674;2023-04-25T00:21:58;5.38;;;2.40;;
72785;SDS011;60902;53.876;10.674;2023-04-25T00:22:10;5.45;;;2.17;;
72785;SDS011;60902;53.876;10.674;2023-04-25T00:22:21;4.95;;;2.00;;
72785;SDS011;60902;53.876;10.674;2023-04-25T00:22:32;4.97;;;2.03;;
72785;SDS011;60902;53.876;10.674;2023-04-25T00:22:44;5.25;;;2.20;;
72785;SDS011;60902;53.876;10.674;2023-04-25T00:22:56;5.40;;;2.40;;
72785;SDS011;60902;53.876;10.674;2023-04-25T00:23:11;5.43;;;2.40;;
72785;SDS011;60902;53.876;10.674;2023-04-25T00:23:22;5.20;;;2.35;;
72785;SDS011;60902;53.876;10.674;2023-04-25T00:23:33;5.10;;;2.20;;
72785;SDS011;60902;53.876;10.674;2023-04-25T00:23:46;5.60;;;2.15;;
72785;SDS011;60902;53.876;10.674;2023-04-25T00:23:58;6.07;;;2.17;;
72785;SDS011;60902;53.876;10.674;2023-04-25T00:24:09;5.97;;;2.15;;
72785;SDS011;60902;53.876;10.674;2023-04-25T00:24:22;5.40;;;2.20;;
72785;SDS011;60902;53.876;10.674;2023-04-25T00:24:34;4.75;;;2.13;;
72785;SDS011;60902;53.876;10.674;2023-04-25T00:24:45;4.80;;;2.20;;
72785;SDS011;60902;53.876;10.674;2023-04-25T00:24:56;5.05;;;2.30;;
72785;SDS011;60902;53.876;10.674;2023-04-25T00:25:10;5.78;;;2.33;;
72785;SDS011;60902;53.876;10.674;2023-04-25T00:25:21;5.68;;;2.38;;
72785;SDS011;60902;53.876;10.674;2023-04-25T00:25:32;5.57;;;2.60;;
72785;SDS011;60902;53.876;10.674;2023-04-25T00:25:44;5.25;;;2.42;;
72785;SDS011;60902;53.876;10.674;2023-04-25T00:25:55;5.22;;;2.30;;
72785;SDS011;60902;53.876;10.674;2023-04-25T00:26:06;5.65;;;2.20;;
72785;SDS011;60902;53.876;10.674;2023-04-25T00:26:17;5.78;;;2.15;;
72785;SDS011;60902;53.876;10.674;2023-04-25T00:26:31;5.50;;;2.17;;
72785;SDS011;60902;53.876;10.674;2023-04-25T00:26:43;5.32;;;2.40;;
72785;SDS011;60902;53.876;10.674;2023-04-25T00:26:54;5.68;;;2.50;;
72785;SDS011;60902;53.876;10.674;2023-04-25T00:27:06;5.53;;;2.40;;
72785;SDS011;60902;53.876;10.674;2023-04-25T00:27:17;5.85;;;2.30;;
72785;SDS011;60902;53.876;10.674;2023-04-25T00:27:29;6.03;;;2.30;;
72785;SDS011;60902;53.876;10.674;2023-04-25T00:27:39;6.18;;;2.33;;
72785;SDS011;60902;53.876;10.674;2023-04-25T00:27:52;5.45;;;2.15;;
72785;SDS011;60902;53.876;10.674;2023-04-25T00:28:03;4.80;;;2.20;;
72785;SDS011;60902;53.876;10.674;2023-04-25T00:28:14;5.00;;;2.20;;
72785;SDS011;60902;53.876;10.674;2023-04-25T00:28:27;5.50;;;2.30;;
72785;SDS011;60902;53.876;10.674;2023-04-25T00:28:38;5.93;;;2.10;;
72785;SDS011;60902;53.876;10.674;2023-04-25T00:28:49;5.97;;;2.22;;
72785;SDS011;60902;53.876;10.674;2023-04-25T00:29:00;5.95;;;2.10;;
72785;SDS011;60902;53.876;10.674;2023-04-25T00:29:11;6.00;;;2.20;;
72785;SDS011;60902;53.876;10.674;2023-04-25T00:29:22;6.45;;;2.38;;
72785;SDS011;60902;53.876;10.674;2023-04-25T00:29:33;5.75;;;2.50;;
72785;SDS011;60902;53.876;10.674;2023-04-25T00:29:46;5.40;;;2.42;;
72785;SDS011;60902;53.876;10.674;2023-04-25T00:29:57;5.65;;;2.40;;
72785;SDS011;60902;53.876;10.674;2023-04-25T00:30:08;5.65;;;2.28;;
72785;SDS011;60902;53.876;10.674;2023-04-25T00:30:20;5.82;;;2.38;;
72785;SDS011;60902;53.876;10.674;2023-04-25T00:30:32;5.60;;;2.40;;
72785;SDS011;60902;53.876;10.674;2023-04-25T00:30:43;5.40;;;2.33;;
72785;SDS011;60902;53.876;10.674;2023-04-25T00:30:54;5.28;;;2.35;;
72785;SDS011;60902;53.876;10.674;2023-04-25T00:31:06;4.75;;;2.15;;
72785;SDS011;60902;53.876;10.674;2023-04-25T00:31:18;5.00;;;2.20;;
72785;SDS011;60902;53.876;10.674;2023-04-25T00:31:28;5.63;;;2.20;;
72785;SDS011;60902;53.876;10.674;2023-04-25T00:31:40;5.82;;;2.22;;
72785;SDS011;60902;53.876;10.674;2023-04-25T00:31:51;5.90;;;2.20;;
72785;SDS011;60902;53.876;10.674;2023-04-25T00:32:02;5.85;;;2.20;;
72785;SDS011;60902;53.876;10.674;2023-04-25T00:32:14;5.82;;;2.30;;
72785;SDS011;60902;53.876;10.674;2023-04-25T00:32:26;5.97;;;2.40;;
72785;SDS011;60902;53.876;10.674;2023-04-25T00:32:36;6.47;;;2.58;;
72785;SDS011;60902;53.876;10.674;2023-04-25T00:32:48;6.13;;;2.42;;
72785;SDS011;60902;53.876;10.674;2023-04-25T00:32:59;5.30;;;2.40;;
72785;SDS011;60902;53.876;10.674;2023-04-25T00:33:10;5.00;;;2.10;;
72785;SDS011;60902;53.876;10.674;2023-04-25T00:33:22;5.50;;;2.17;;
72785;SDS011;60902;53.876;10.674;2023-04-25T00:33:34;5.68;;;2.38;;
72785;SDS011;60902;53.876;10.674;2023-04-25T00:33:46;6.00;;;2.38;;
72785;SDS011;60902;53.876;10.674;2023-04-25T00:33:57;5.60;;;2.42;;
72785;SDS011;60902;53.876;10.674;2023-04-25T00:34:09;5.88;;;2.33;;
72785;SDS011;60902;53.876;10.674;2023-04-25T00:34:20;5.93;;;2.40;;
72785;SDS011;60902;53.876;10.674;2023-04-25T00:34:31;5.70;;;2.20;;
72785;SDS011;60902;53.876;10.674;2023-04-25T00:34:43;6.00;;;2.20;;
72785;SDS011;60902;53.876;10.674;2023-04-25T00:34:54;5.88;;;2.38;;
72785;SDS011;60902;53.876;10.674;2023-04-25T00:35:08;5.65;;;2.55;;
72785;SDS011;60902;53.876;10.674;2023-04-25T00:35:19;5.03;;;2.35;;
72785;SDS011;60902;53.876;10.674;2023-04-25T00:35:31;5.30;;;2.50;;
72785;SDS011;60902;53.876;10.674;2023-04-25T00:35:42;5.63;;;2.20;;
72785;SDS011;60902;53.876;10.674;2023-04-25T00:35:53;6.10;;;2.22;;
72785;SDS011;60902;53.876;10.674;2023-04-25T00:36:05;6.00;;;2.33;;
72785;SDS011;60902;53.876;10.674;2023-04-25T00:36:17;5.70;;;2.33;;
72785;SDS011;60902;53.876;10.674;2023-04-25T00:36:29;5.75;;;2.30;;
72785;SDS011;60902;53.876;10.674;2023-04-25T00:36:41;6.32;;;2.10;;
72785;SDS011;60902;53.876;10.674;2023-04-25T00:36:52;6.68;;;2.22;;
72785;SDS011;60902;53.876;10.674;2023-04-25T00:37:03;5.90;;;2.33;;
72785;SDS011;60902;53.876;10.674;2023-04-25T00:37:15;5.90;;;2.55;;
72785;SDS011;60902;53.876;10.674;2023-04-25T00:37:26;5.22;;;2.25;;
72785;SDS011;60902;53.876;10.674;2023-04-25T00:37:37;5.40;;;2.30;;
72785;SDS011;60902;53.876;10.674;2023-04-25T00:37:48;5.53;;;2.33;;
72785;SDS011;60902;53.876;10.674;2023-04-25T00:38:00;5.65;;;2.20;;
72785;SDS011;60902;53.876;10.674;2023-04-25T00:38:13;6.00;;;2.30;;
72785;SDS011;60902;53.876;10.674;2023-04-25T00:38:24;6.25;;;2.40;;
72785;SDS011;60902;53.876;10.674;2023-04-25T00:38:35;6.35;;;2.35;;
72785;SDS011;60902;53.876;10.674;2023-04-25T00:38:46;5.57;;;2.20;;
72785;SDS011;60902;53.876;10.674;2023-04-25T00:38:57;5.05;;;2.00;;
72785;SDS011;60902;53.876;10.674;2023-04-25T00:39:08;4.95;;;2.00;;
72785;SDS011;60902;53.876;10.674;2023-04-25T00:39:19;5.45;;;2.28;;
72785;SDS011;60902;53.876;10.674;2023-04-25T00:39:32;5.68;;;2.40;;
72785;SDS011;60902;53.876;10.674;2023-04-25T00:39:43;5.80;;;2.60;;
72785;SDS011;60902;53.876;10.674;2023-04-25T00:39:54;5.72;;;2.42;;
72785;SDS011;60902;53.876;10.674;2023-04-25T00:40:08;5.75;;;2.33;;
72785;SDS011;60902;53.876;10.674;2023-04-25T00:40:20;5.38;;;2.20;;
72785;SDS011;60902;53.876;10.674;2023-04-25T00:40:31;5.85;;;2.22;;
72785;SDS011;60902;53.876;10.674;2023-04-25T00:40:43;6.20;;;2.20;;
72785;SDS011;60902;53.876;10.674;2023-04-25T00:40:54;6.20;;;2.20;;
72785;SDS011;60902;53.876;10.674;2023-04-25T00:41:05;5.13;;;2.00;;
72785;SDS011;60902;53.876;10.674;2023-04-25T00:41:17;5.15;;;2.20;;
72785;SDS011;60902;53.876;10.674;2023-04-25T00:41:29;5.60;;;2.45;;
72785;SDS011;60902;53.876;10.674;2023-04-25T00:41:41;5.85;;;2.70;;
72785;SDS011;60902;53.876;10.674;2023-04-25T00:41:54;6.15;;;2.50;;
72785;SDS011;60902;53.876;10.674;2023-04-25T00:42:05;7.00;;;2.53;;
72785;SDS011;60902;53.876;10.674;2023-04-25T00:42:17;6.72;;;2.50;;
72785;SDS011;60902;53.876;10.674;2023-04-25T00:42:28;6.05;;;2.55;;
72785;SDS011;60902;53.876;10.674;2023-04-25T00:42:40;5.53;;;2.38;;
72785;SDS011;60902;53.876;10.674;2023-04-25T00:42:52;5.18;;;2.10;;
72785;SDS011;60902;53.876;10.674;2023-04-25T00:43:04;5.20;;;2.20;;
72785;SDS011;60902;53.876;10.674;2023-04-25T00:43:16;5.50;;;2.20;;
72785;SDS011;60902;53.876;10.674;2023-04-25T00:43:27;5.93;;;2.40;;
72785;SDS011;60902;53.876;10.674;2023-04-25T00:43:40;6.43;;;2.45;;
72785;SDS011;60902;53.876;10.674;2023-04-25T00:43:52;6.28;;;2.25;;
72785;SDS011;60902;53.876;10.674;2023-04-25T00:44:04;6.03;;;2.30;;
72785;SDS011;60902;53.876;10.674;2023-04-25T00:44:18;5.32;;;2.35;;
72785;SDS011;60902;53.876;10.674;2023-04-25T00:44:29;5.75;;;2.50;;
72785;SDS011;60902;53.876;10.674;2023-04-25T00:44:40;6.03;;;2.20;;
72785;SDS011;60902;53.876;10.674;2023-04-25T00:44:52;6.25;;;2.28;;
72785;SDS011;60902;53.876;10.674;2023-04-25T00:45:04;6.28;;;2.28;;
72785;SDS011;60902;53.876;10.674;2023-04-25T00:45:17;6.15;;;2.25;;
72785;SDS011;60902;53.876;10.674;2023-04-25T00:45:29;5.25;;;2.20;;
72785;SDS011;60902;53.876;10.674;2023-04-25T00:45:40;5.25;;;2.13;;
72785;SDS011;60902;53.876;10.674;2023-04-25T00:45:54;6.07;;;2.50;;
72785;SDS011;60902;53.876;10.674;2023-04-25T00:46:07;6.65;;;2.92;;
72785;SDS011;60902;53.876;10.674;2023-04-25T00:46:18;6.13;;;2.75;;
72785;SDS011;60902;53.876;10.674;2023-04-25T00:46:29;6.25;;;2.75;;
72785;SDS011;60902;53.876;10.674;2023-04-25T00:46:41;6.28;;;2.67;;
72785;SDS011;60902;53.876;10.674;2023-04-25T00:46:53;5.80;;;2.78;;
72785;SDS011;60902;53.876;10.674;2023-04-25T00:47:04;5.32;;;2.60;;
72785;SDS011;60902;53.876;10.674;2023-04-25T00:47:16;5.32;;;2.25;;
72785;SDS011;60902;53.876;10.674;2023-04-25T00:47:27;5.38;;;2.05;;
72785;SDS011;60902;53.876;10.674;2023-04-25T00:47:40;5.10;;;2.10;;
72785;SDS011;60902;53.876;10.674;2023-04-25T00:47:52;5.07;;;2.15;;
72785;SDS011;60902;53.876;10.674;2023-04-25T00:48:04;5.35;;;2.13;;
72785;SDS011;60902;53.876;10.674;2023-04-25T00:48:16;5.85;;;2.25;;
72785;SDS011;60902;53.876;10.674;2023-04-25T00:48:28;6.13;;;2.47;;
72785;SDS011;60902;53.876;10.674;2023-04-25T00:48:38;6.07;;;2.70;;
72785;SDS011;60902;53.876;10.674;2023-04-25T00:48:49;5.68;;;2.38;;
72785;SDS011;60902;53.876;10.674;2023-04-25T00:49:02;6.00;;;2.28;;
72785;SDS011;60902;53.876;10.674;2023-04-25T00:49:14;7.03;;;2.25;;
72785;SDS011;60902;53.876;10.674;2023-04-25T00:49:26;7.78;;;2.63;;
72785;SDS011;60902;53.876;10.674;2023-04-25T00:49:37;7.10;;;2.50;;
72785;SDS011;60902;53.876;10.674;2023-04-25T00:49:48;7.05;;;2.85;;
72785;SDS011;60902;53.876;10.674;2023-04-25T00:49:59;6.57;;;2.70;;
72785;SDS011;60902;53.876;10.674;2023-04-25T00:50:11;6.78;;;2.65;;
72785;SDS011;60902;53.876;10.674;2023-04-25T00:50:22;6.15;;;2.50;;
72785;SDS011;60902;53.876;10.674;2023-04-25T00:50:34;5.55;;;2.35;;
72785;SDS011;60902;53.876;10.674;2023-04-25T00:50:48;5.45;;;2.40;;
72785;SDS011;60902;53.876;10.674;2023-04-25T00:51:02;5.90;;;2.60;;
72785;SDS011;60902;53.876;10.674;2023-04-25T00:51:14;5.85;;;2.65;;
72785;SDS011;60902;53.876;10.674;2023-04-25T00:51:28;6.03;;;2.50;;
72785;SDS011;60902;53.876;10.674;2023-04-25T00:51:40;6.22;;;2.45;;
72785;SDS011;60902;53.876;10.674;2023-04-25T00:51:51;6.22;;;2.58;;
72785;SDS011;60902;53.876;10.674;2023-04-25T00:52:03;6.20;;;2.42;;
72785;SDS011;60902;53.876;10.674;2023-04-25T00:52:14;6.53;;;2.33;;
72785;SDS011;60902;53.876;10.674;2023-04-25T00:52:25;6.20;;;2.30;;
72785;SDS011;60902;53.876;10.674;2023-04-25T00:52:37;5.53;;;2.20;;
72785;SDS011;60902;53.876;10.674;2023-04-25T00:52:49;4.38;;;2.10;;
72785;SDS011;60902;53.876;10.674;2023-04-25T00:53:01;4.95;;;2.20;;
72785;SDS011;60902;53.876;10.674;2023-04-25T00:53:14;5.10;;;2.10;;
72785;SDS011;60902;53.876;10.674;2023-04-25T00:53:26;4.85;;;2.00;;
72785;SDS011;60902;53.876;10.674;2023-04-25T00:53:39;5.13;;;2.03;;
72785;SDS011;60902;53.876;10.674;2023-04-25T00:53:50;6.07;;;2.70;;
72785;SDS011;60902;53.876;10.674;2023-04-25T00:54:02;6.07;;;2.95;;
72785;SDS011;60902;53.876;10.674;2023-04-25T00:54:13;6.35;;;2.97;;
72785;SDS011;60902;53.876;10.674;2023-04-25T00:54:25;6.25;;;2.80;;
72785;SDS011;60902;53.876;10.674;2023-04-25T00:54:36;6.30;;;2.42;;
72785;SDS011;60902;53.876;10.674;2023-04-25T00:54:49;6.57;;;2.30;;
72785;SDS011;60902;53.876;10.674;2023-04-25T00:55:00;6.22;;;2.40;;
72785;SDS011;60902;53.876;10.674;2023-04-25T00:55:11;6.13;;;2.30;;
72785;SDS011;60902;53.876;10.674;2023-04-25T00:55:22;5.78;;;2.28;;
72785;SDS011;60902;53.876;10.674;2023-04-25T00:55:34;6.15;;;2.40;;
72785;SDS011;60902;53.876;10.674;2023-04-25T00:55:46;5.72;;;2.47;;
72785;SDS011;60902;53.876;10.674;2023-04-25T00:55:58;6.05;;;2.40;;
72785;SDS011;60902;53.876;10.674;2023-04-25T00:56:09;6.03;;;2.47;;
72785;SDS011;60902;53.876;10.674;2023-04-25T00:56:21;6.05;;;2.53;;
72785;SDS011;60902;53.876;10.674;2023-04-25T00:56:32;5.22;;;2.45;;
72785;SDS011;60902;53.876;10.674;2023-04-25T00:56:44;6.25;;;2.67;;
72785;SDS011;60902;53.876;10.674;2023-04-25T00:56:55;6.38;;;2.45;;
72785;SDS011;60902;53.876;10.674;2023-04-25T00:57:07;6.28;;;2.40;;
72785;SDS011;60902;53.876;10.674;2023-04-25T00:57:18;5.78;;;2.20;;
72785;SDS011;60902;53.876;10.674;2023-04-25T00:57:29;6.22;;;2.40;;
72785;SDS011;60902;53.876;10.674;2023-04-25T00:57:40;6.65;;;2.50;;
72785;SDS011;60902;53.876;10.674;2023-04-25T00:57:52;6.72;;;2.38;;
72785;SDS011;60902;53.876;10.674;2023-04-25T00:58:04;7.07;;;2.40;;
72785;SDS011;60902;53.876;10.674;2023-04-25T00:58:15;6.95;;;2.50;;
72785;SDS011;60902;53.876;10.674;2023-04-25T00:58:26;6.00;;;2.42;;
72785;SDS011;60902;53.876;10.674;2023-04-25T00:58:37;5.90;;;2.47;;
72785;SDS011;60902;53.876;10.674;2023-04-25T00:58:50;6.63;;;2.50;;
72785;SDS011;60902;53.876;10.674;2023-04-25T00:59:04;6.68;;;2.50;;
72785;SDS011;60902;53.876;10.674;2023-04-25T00:59:16;5.97;;;2.38;;
72785;SDS011;60902;53.876;10.674;2023-04-25T00:59:29;5.57;;;2.50;;
72785;SDS011;60902;53.876;10.674;2023-04-25T00:59:41;5.82;;;2.50;;
72785;SDS011;60902;53.876;10.674;2023-04-25T00:59:56;6.25;;;2.30;;
72785;SDS011;60902;53.876;10.674;2023-04-25T01:00:08;6.82;;;2.50;;
72785;SDS011;60902;53.876;10.674;2023-04-25T01:00:21;6.20;;;2.55;;
72785;SDS011;60902;53.876;10.674;2023-04-25T01:00:34;6.43;;;2.67;;
72785;SDS011;60902;53.876;10.674;2023-04-25T01:00:45;5.90;;;2.58;;
72785;SDS011;60902;53.876;10.674;2023-04-25T01:00:57;6.50;;;2.45;;
72785;SDS011;60902;53.876;10.674;2023-04-25T01:01:09;6.93;;;2.67;;
72785;SDS011;60902;53.876;10.674;2023-04-25T01:01:21;6.97;;;2.58;;
72785;SDS011;60902;53.876;10.674;2023-04-25T01:01:32;6.20;;;2.45;;
72785;SDS011;60902;53.876;10.674;2023-04-25T01:01:43;6.15;;;2.20;;
72785;SDS011;60902;53.876;10.674;2023-04-25T01:01:55;6.38;;;2.88;;
72785;SDS011;60902;53.876;10.674;2023-04-25T01:02:06;6.43;;;2.83;;
72785;SDS011;60902;53.876;10.674;2023-04-25T01:02:19;7.15;;;2.67;;
72785;SDS011;60902;53.876;10.674;2023-04-25T01:02:30;7.15;;;2.70;;
72785;SDS011;60902;53.876;10.674;2023-04-25T01:02:43;6.55;;;2.50;;
72785;SDS011;60902;53.876;10.674;2023-04-25T01:02:54;6.50;;;2.30;;
72785;SDS011;60902;53.876;10.674;2023-04-25T01:03:05;6.35;;;2.35;;
72785;SDS011;60902;53.876;10.674;2023-04-25T01:03:16;6.53;;;2.55;;
72785;SDS011;60902;53.876;10.674;2023-04-25T01:03:29;6.28;;;2.60;;
72785;SDS011;60902;53.876;10.674;2023-04-25T01:03:45;5.50;;;2.20;;
72785;SDS011;60902;53.876;10.674;2023-04-25T01:03:58;6.25;;;2.25;;
72785;SDS011;60902;53.876;10.674;2023-04-25T01:04:10;7.18;;;2.40;;
72785;SDS011;60902;53.876;10.674;2023-04-25T01:04:21;6.80;;;2.53;;
72785;SDS011;60902;53.876;10.674;2023-04-25T01:04:32;5.95;;;2.22;;
72785;SDS011;60902;53.876;10.674;2023-04-25T01:04:43;5.57;;;2.22;;
72785;SDS011;60902;53.876;10.674;2023-04-25T01:04:55;5.97;;;2.30;;
72785;SDS011;60902;53.876;10.674;2023-04-25T01:05:06;6.38;;;2.42;;
72785;SDS011;60902;53.876;10.674;2023-04-25T01:05:19;7.10;;;2.55;;
72785;SDS011;60902;53.876;10.674;2023-04-25T01:05:31;6.75;;;2.40;;
72785;SDS011;60902;53.876;10.674;2023-04-25T01:05:43;6.88;;;2.28;;
72785;SDS011;60902;53.876;10.674;2023-04-25T01:05:54;5.82;;;2.00;;
72785;SDS011;60902;53.876;10.674;2023-04-25T01:06:07;5.57;;;2.03;;
72785;SDS011;60902;53.876;10.674;2023-04-25T01:06:19;5.80;;;2.33;;
72785;SDS011;60902;53.876;10.674;2023-04-25T01:06:30;5.53;;;2.38;;
72785;SDS011;60902;53.876;10.674;2023-04-25T01:06:42;5.65;;;2.40;;
72785;SDS011;60902;53.876;10.674;2023-04-25T01:06:55;6.10;;;2.30;;
72785;SDS011;60902;53.876;10.674;2023-04-25T01:07:06;6.82;;;2.58;;
72785;SDS011;60902;53.876;10.674;2023-04-25T01:07:18;7.50;;;2.65;;
72785;SDS011;60902;53.876;10.674;2023-04-25T01:07:29;7.68;;;2.80;;
72785;SDS011;60902;53.876;10.674;2023-04-25T01:07:40;7.38;;;2.65;;
72785;SDS011;60902;53.876;10.674;2023-04-25T01:07:52;7.65;;;2.92;;
72785;SDS011;60902;53.876;10.674;2023-04-25T01:08:03;7.70;;;2.87;;
72785;SDS011;60902;53.876;10.674;2023-04-25T01:08:16;6.05;;;2.70;;
72785;SDS011;60902;53.876;10.674;2023-04-25T01:08:28;5.80;;;2.60;;
72785;SDS011;60902;53.876;10.674;2023-04-25T01:08:40;6.22;;;2.50;;
72785;SDS011;60902;53.876;10.674;2023-04-25T01:08:51;6.53;;;2.30;;
72785;SDS011;60902;53.876;10.674;2023-04-25T01:09:02;7.10;;;2.30;;
72785;SDS011;60902;53.876;10.674;2023-04-25T01:09:14;6.78;;;2.42;;
72785;SDS011;60902;53.876;10.674;2023-04-25T01:09:26;5.93;;;2.28;;
72785;SDS011;60902;53.876;10.674;2023-04-25T01:09:38;6.15;;;2.28;;
72785;SDS011;60902;53.876;10.674;2023-04-25T01:09:51;6.38;;;2.22;;